This demonstration page uses our WeatherBlox Daily Observations layout. Learn more.

Left ArrowRight Arrow

36.17497, -115.13722

Hourly Observations for May 24, 2016

Temp ( °F °C ) Dew Point ( °F °C ) Humidity (%) Winds ( mph kmh ) Pressure ( in mb ) Visibility ( mi km ) Precip ( " mm )
12:53 am 00:53 Clear 69 20.6 31 -0.6 24 24 WSW 15 24 29.7 1006 10 16.0934 0 0
1:53 am 01:53 Clear 69 20.6 31 -0.6 24 24 WSW 8 13 29.7 1006 10 16.0934 0 0
2:53 am 02:53 Clear 66 18.9 34 1.1 30 30 S 10 17 29.71 1006 10 16.0934 0 0
3:53 am 03:53 Clear 64 17.8 36 2.2 35 35 S 15 24 29.71 1006 10 16.0934 0 0
4:53 am 04:53 Clear 64 17.8 35 1.7 34 34 S 15 24 29.72 1006 10 16.0934 0 0
5:53 am 05:53 Sunny 62 16.7 36 2.2 38 38 SE 10 17 29.74 1007 10 16.0934 0 0
6:53 am 06:53 Sunny 64 17.8 36 2.2 35 35 S 15 24 29.75 1008 10 16.0934 0 0
7:53 am 07:53 Sunny 66 18.9 36 2.2 33 33 SSW 14 22 29.76 1008 10 16.0934 0 0
8:53 am 08:53 Sunny 68 20 36 2.2 31 31 S 21 33 29.78 1009 10 16.0934 0 0
9:53 am 09:53 Sunny 70 21.1 36 2.2 29 29 S 18 30 29.79 1009 10 16.0934 0 0
10:53 am 10:53 Sunny 72 22.2 35 1.7 26 26 S 18 30 29.79 1009 10 16.0934 0 0
11:53 am 11:53 Sunny 74 23.3 33 0.6 22 22 SSW 21 33 29.8 1009 10 16.0934 0 0
12:53 pm 12:53 Sunny 76 24.4 33 0.6 21 21 SW 21 33 29.8 1009 10 16.0934 0 0
1:53 pm 13:53 Sunny 77 25 32 0 19 19 SW 17 28 29.8 1009 10 16.0934 0 0
2:53 pm 14:53 Sunny 78 25.6 32 0 19 19 SW 18 30 29.8 1009 10 16.0934 0 0
3:53 pm 15:53 Sunny 78 25.6 31 -0.6 18 18 WSW 18 30 29.8 1009 10 16.0934 0 0
4:53 pm 16:53 Sunny 78 25.6 31 -0.6 18 18 WSW 15 24 29.8 1009 10 16.0934 0 0
5:53 pm 17:53 Sunny 77 25 31 -0.6 18 18 SW 17 28 29.81 1010 10 16.0934 0 0
6:53 pm 18:53 Sunny 76 24.4 31 -0.6 19 19 WSW 13 20 29.81 1010 10 16.0934 0 0
7:53 pm 19:53 Clear 75 23.9 28 -2.2 18 18 SW 13 20 29.83 1010 10 16.0934 0 0
8:53 pm 20:53 Clear 73 22.8 28 -2.2 19 19 SW 12 19 29.85 1011 10 16.0934 0 0
9:53 pm 21:53 Clear 72 22.2 29 -1.7 20 20 WSW 8 13 29.87 1012 10 16.0934 0 0
10:53 pm 22:53 Clear 71 21.7 31 -0.6 23 23 W 15 24 29.87 1012 10 16.0934 0 0
11:53 pm 23:53 Clear 69 20.6 32 0 25 25 WSW 8 13 29.88 1012 10 16.0934 0 0

Powered by AerisWeather